New Hartford, Iowa
Current Conditions -  °F | °C
As of 12:54 PM on Tuesday 21 Oct 2014 (Local Time) from KALO Reporting Station
Clear Clear  
Wind Chill: 58°   Ceiling: Unl
Heat Index: 58°   Visibility: 10mi
Dew Point: 41°   Wind: 9mph
Humidity: 53%   Direction: 110°ESE
Pressure: 30.18"   Gusts: NA
Location:  42.57°N, 92.62°W
Report Text: KALO 211754Z 11008KT 10SM CLR 14/05 A3018 RMK AO2 SLP222 T01440050 10144 20006 58007
Loading
Personal Weather Stations






























Interactive Weather Map
Tropical Storm Tracking
New forecast layout! Learn more

10-Day Weather Forecast

Advertisements
Track Severe Weather on mobile